Key West International Airport Key West US
ICAO: KEYW
IATA: EYW
Category: Medium
Scheduled Services: Yes

Elevation: 3 ft
TransAlt. 18000 ft.

Airport Communications:
NAVY KEY WEST:124.45
ASOS:119.65
ATIS:119.675
CLNC DEL:121.9
CTAF:118.2
MIAMI RDO:122.2
GND:121.9
TWR:118.2
UNICOM:122.95

KEYW Zoom In..

Runways:

(A) RW 09 length 4801 ft width 100 ft
---- / hdg 93

(B) RW 27 length 4801 ft width 100 ft
---- / hdg 273

Location; KEYW
Day. 19 / Time. 20.53 Zulu
* Altimeter: 30.08
* Temperature: 28° c. 82.4°f.
* Wind from: 010° Speed 05 kn.
Dewpoint: 19° c.
Visibility: 10 Statute Miles.
Clouds: Clear (automated report).

KEYW 192053Z 01005KT 10SM CLR 28/19 A3008 RMK AO2 SLP185 T02780189 58012


Wind From 010°
Speed 05 kn.

  YouTube Music Video
 
jpsmedia.com for Web Design  worldairports.se 2018   terms of use